Time;durP1;ratioP1;P1;durP2;ratioP2;P2;SDS_P1;SDS_P2;PMS_P1;PMS_P2;Temp;Humidity;BMP_temperature;BMP_pressure;BME280_temperature;BME280_humidity;BME280_pressure;Samples;Min_cycle;Max_cycle;Signal;HPM_P1;HPM_P2
2022/10/01 00:02:12;;;;;;;10.03;9.73;;;6.20;99.90;;;;;;5124312;28;20258;-79
2022/10/01 00:04:41;;;;;;;10.17;9.87;;;6.20;99.90;;;;;;5124193;28;20235;-79
2022/10/01 00:07:13;;;;;;;10.17;9.87;;;6.10;99.90;;;;;;5123457;28;20232;-79
2022/10/01 00:09:44;;;;;;;10.30;10.00;;;6.20;99.90;;;;;;5122912;28;20232;-78
2022/10/01 00:12:15;;;;;;;10.27;9.97;;;6.10;99.90;;;;;;5122515;28;20260;-78
2022/10/01 00:14:43;;;;;;;10.10;9.80;;;6.10;99.90;;;;;;5122433;28;20278;-79
2022/10/01 00:17:10;;;;;;;10.03;9.73;;;6.20;99.90;;;;;;5124315;28;20228;-81
2022/10/01 00:19:39;;;;;;;10.00;9.70;;;6.20;99.90;;;;;;5124671;28;20259;-80
2022/10/01 00:22:07;;;;;;;10.30;10.00;;;6.20;99.90;;;;;;5126294;28;20328;-80
2022/10/01 00:24:36;;;;;;;10.17;9.87;;;6.20;99.90;;;;;;5125603;28;20283;-79
2022/10/01 00:27:11;;;;;;;10.20;9.90;;;6.20;99.90;;;;;;5143953;27;20212;-79
2022/10/01 00:29:38;;;;;;;10.20;9.90;;;6.20;99.90;;;;;;5143492;27;20232;-79
2022/10/01 00:32:06;;;;;;;10.10;9.80;;;6.20;99.90;;;;;;5123944;28;20319;-80
2022/10/01 00:34:35;;;;;;;10.13;9.83;;;6.20;99.90;;;;;;5122062;28;20232;-79
2022/10/01 00:37:05;;;;;;;10.13;9.83;;;6.20;99.90;;;;;;5121951;28;20283;-80
2022/10/01 00:39:34;;;;;;;10.30;10.00;;;6.20;99.90;;;;;;5121829;28;20328;-79
2022/10/01 00:42:03;;;;;;;10.40;10.10;;;6.30;99.90;;;;;;5121897;28;20264;-79
2022/10/01 00:44:36;;;;;;;10.50;10.20;;;6.20;99.90;;;;;;5121399;28;20228;-80
2022/10/01 00:47:15;;;;;;;10.37;10.07;;;6.20;99.90;;;;;;5122163;28;20228;-79
2022/10/01 00:49:46;;;;;;;10.60;10.30;;;6.20;99.90;;;;;;5121641;28;20232;-80
2022/10/01 00:52:19;;;;;;;10.30;10.00;;;6.20;99.90;;;;;;5122630;28;20227;-79
2022/10/01 00:54:57;;;;;;;10.53;10.23;;;6.10;99.90;;;;;;5121612;28;20385;-80
2022/10/01 00:57:27;;;;;;;10.50;10.20;;;6.10;99.90;;;;;;5121734;28;20301;-79
2022/10/01 01:00:03;;;;;;;10.30;10.00;;;6.10;99.90;;;;;;5120943;28;20263;-80
2022/10/01 01:02:35;;;;;;;10.30;10.00;;;6.10;99.90;;;;;;5122242;28;20285;-80
2022/10/01 01:05:04;;;;;;;10.30;10.00;;;6.10;99.90;;;;;;5122180;28;20290;-79
2022/10/01 01:07:34;;;;;;;10.40;10.10;;;6.10;99.90;;;;;;5122722;28;20697;-80
2022/10/01 01:10:04;;;;;;;10.40;10.10;;;6.10;99.90;;;;;;5121369;28;20224;-79
2022/10/01 01:12:51;;;;;;;10.40;10.10;;;6.00;99.90;;;;;;5120944;28;20384;-79
2022/10/01 01:15:36;;;;;;;10.37;10.07;;;6.00;99.90;;;;;;5119926;28;20229;-78
2022/10/01 01:18:09;;;;;;;10.40;10.10;;;6.00;99.90;;;;;;5121281;28;20248;-80
2022/10/01 01:21:07;;;;;;;10.47;10.17;;;6.00;99.90;;;;;;5121085;28;20231;-80
2022/10/01 01:24:05;;;;;;;10.30;10.00;;;6.00;99.90;;;;;;5100861;28;20247;-79
2022/10/01 01:26:47;;;;;;;10.50;10.20;;;6.00;99.90;;;;;;5121708;28;20312;-79
2022/10/01 01:29:26;;;;;;;10.70;10.40;;;6.00;99.90;;;;;;5122884;28;20259;-81
2022/10/01 01:31:59;;;;;;;10.63;10.33;;;5.90;99.90;;;;;;5122043;28;20828;-80
2022/10/01 01:34:32;;;;;;;10.50;10.20;;;5.90;99.90;;;;;;5121996;28;20284;-79
2022/10/01 01:37:04;;;;;;;10.57;10.27;;;6.00;99.90;;;;;;5122001;28;20237;-79
2022/10/01 01:39:34;;;;;;;10.50;10.20;;;6.00;99.90;;;;;;5122311;28;20239;-79
2022/10/01 01:42:09;;;;;;;10.60;10.30;;;6.00;99.90;;;;;;5122377;28;20244;-79
2022/10/01 01:44:47;;;;;;;10.40;10.10;;;6.00;99.90;;;;;;5123273;28;20256;-80
2022/10/01 01:47:20;;;;;;;10.30;10.00;;;5.90;99.90;;;;;;5123458;28;20224;-79
2022/10/01 01:49:49;;;;;;;10.50;10.20;;;5.90;99.90;;;;;;5123135;28;20231;-78
2022/10/01 01:52:18;;;;;;;10.43;10.13;;;5.90;99.90;;;;;;5122633;28;20243;-79
2022/10/01 01:54:48;;;;;;;10.50;10.20;;;6.00;99.90;;;;;;5131367;28;20247;-80
2022/10/01 01:57:18;;;;;;;10.33;10.03;;;6.00;99.90;;;;;;5124654;28;20236;-80
2022/10/01 01:59:48;;;;;;;10.33;10.03;;;6.00;99.90;;;;;;5125086;28;20224;-80
2022/10/01 02:02:22;;;;;;;10.50;10.20;;;6.00;99.90;;;;;;5124087;28;20312;-80
2022/10/01 02:04:54;;;;;;;10.40;10.10;;;6.00;99.90;;;;;;5123345;28;20280;-80
2022/10/01 02:07:47;;;;;;;10.47;10.17;;;5.90;99.90;;;;;;5123688;28;20264;-80
2022/10/01 02:10:36;;;;;;;10.40;10.10;;;5.90;99.90;;;;;;5122635;28;20296;-80
2022/10/01 02:13:23;;;;;;;10.50;10.20;;;5.90;99.90;;;;;;5122633;28;20268;-80
2022/10/01 02:16:03;;;;;;;10.53;10.23;;;5.80;99.90;;;;;;5121653;28;20239;-80
2022/10/01 02:18:39;;;;;;;10.60;10.30;;;5.80;99.90;;;;;;5122641;28;20235;-80
2022/10/01 02:21:15;;;;;;;10.50;10.20;;;5.70;99.90;;;;;;5122216;28;20232;-81
2022/10/01 02:23:48;;;;;;;10.60;10.30;;;5.70;99.90;;;;;;5124730;28;20315;-80
2022/10/01 02:26:22;;;;;;;10.50;10.20;;;5.70;99.90;;;;;;5121652;28;20243;-80
2022/10/01 02:28:55;;;;;;;10.40;10.10;;;5.70;99.90;;;;;;5122435;28;20286;-80
2022/10/01 02:31:26;;;;;;;10.60;10.30;;;5.60;99.90;;;;;;5122036;28;20240;-80
2022/10/01 02:33:56;;;;;;;10.53;10.23;;;5.60;99.90;;;;;;5121732;28;20240;-80
2022/10/01 02:36:26;;;;;;;10.30;10.00;;;5.60;99.90;;;;;;5121405;28;20236;-79
2022/10/01 02:38:57;;;;;;;10.37;10.07;;;5.60;99.90;;;;;;5121754;28;20259;-79
2022/10/01 02:41:30;;;;;;;10.40;10.10;;;5.60;99.90;;;;;;5122005;28;20286;-80
2022/10/01 02:44:02;;;;;;;10.60;10.30;;;5.60;99.90;;;;;;5122170;28;20311;-80
2022/10/01 02:46:40;;;;;;;10.37;10.07;;;5.60;99.90;;;;;;5120764;28;20216;-80
2022/10/01 02:49:08;;;;;;;10.13;9.83;;;5.60;99.90;;;;;;5121348;28;20239;-79
2022/10/01 02:51:47;;;;;;;10.20;9.90;;;5.60;99.90;;;;;;5121569;28;20300;-80
2022/10/01 02:54:24;;;;;;;10.47;10.17;;;5.60;99.90;;;;;;5121901;28;20288;-80
2022/10/01 02:59:42;;;;;;;10.60;10.30;;;5.60;99.90;;;;;;5122309;28;20221;-80
2022/10/01 03:02:12;;;;;;;10.23;9.93;;;5.60;99.90;;;;;;5143008;27;20255;-80
2022/10/01 03:04:39;;;;;;;10.10;9.80;;;5.60;99.90;;;;;;5147995;27;20296;-79
2022/10/01 03:07:08;;;;;;;10.40;10.10;;;5.60;99.90;;;;;;5151098;27;20272;-80
2022/10/01 03:09:39;;;;;;;10.50;10.20;;;5.60;99.90;;;;;;5151686;27;20235;-80
2022/10/01 03:12:09;;;;;;;10.23;9.93;;;5.70;99.90;;;;;;5145192;27;20240;-80
2022/10/01 03:14:38;;;;;;;10.30;10.00;;;5.70;99.90;;;;;;5143902;27;20237;-80
2022/10/01 03:17:09;;;;;;;10.27;9.97;;;5.70;99.90;;;;;;5144738;27;20216;-80
2022/10/01 03:19:39;;;;;;;10.50;10.20;;;5.70;99.90;;;;;;5145082;27;20236;-81
2022/10/01 03:22:07;;;;;;;10.33;10.03;;;5.70;99.90;;;;;;5144366;27;20235;-80
2022/10/01 03:24:35;;;;;;;10.50;10.20;;;5.70;99.90;;;;;;5146650;27;20319;-80
2022/10/01 03:27:04;;;;;;;10.50;10.20;;;5.70;99.90;;;;;;5144893;27;20224;-80
2022/10/01 03:29:34;;;;;;;10.50;10.20;;;5.70;99.90;;;;;;5144527;27;20323;-80
2022/10/01 03:32:05;;;;;;;10.50;10.20;;;5.70;99.90;;;;;;5141559;27;20255;-79
2022/10/01 03:34:34;;;;;;;10.33;10.03;;;5.70;99.90;;;;;;5142706;27;20295;-80
2022/10/01 03:37:04;;;;;;;10.30;10.00;;;5.70;99.90;;;;;;5143953;27;20299;-79
2022/10/01 03:39:32;;;;;;;10.57;10.27;;;5.70;99.90;;;;;;5143603;27;20315;-80
2022/10/01 03:42:02;;;;;;;10.50;10.20;;;5.70;99.90;;;;;;5141823;27;20318;-78
2022/10/01 03:44:30;;;;;;;10.40;10.10;;;5.70;99.90;;;;;;5143377;27;20232;-79
2022/10/01 03:46:59;;;;;;;10.40;10.10;;;5.80;99.90;;;;;;5148533;27;20226;-78
2022/10/01 03:49:29;;;;;;;10.70;10.40;;;5.80;99.90;;;;;;5151371;27;20224;-78
2022/10/01 03:51:58;;;;;;;10.50;10.20;;;5.80;99.90;;;;;;5150733;27;20295;-78
2022/10/01 03:54:30;;;;;;;10.60;10.30;;;5.80;99.90;;;;;;5151010;27;20291;-78
2022/10/01 03:56:58;;;;;;;10.27;9.97;;;5.80;99.90;;;;;;5151792;27;20230;-79
2022/10/01 03:59:28;;;;;;;10.57;10.27;;;5.80;99.90;;;;;;5152679;27;20228;-78
2022/10/01 04:01:56;;;;;;;10.50;10.20;;;5.90;99.90;;;;;;5146739;27;20243;-80
2022/10/01 04:04:27;;;;;;;10.50;10.20;;;5.90;99.90;;;;;;5150714;27;20230;-79
2022/10/01 04:06:57;;;;;;;10.43;10.13;;;5.90;99.90;;;;;;5154031;27;20224;-79
2022/10/01 04:09:26;;;;;;;10.37;10.07;;;6.00;99.90;;;;;;5156275;27;20232;-79
2022/10/01 04:11:54;;;;;;;10.60;10.30;;;6.00;99.90;;;;;;5155604;27;20261;-79
2022/10/01 04:14:25;;;;;;;10.57;10.27;;;6.00;99.90;;;;;;5145981;27;20235;-80
2022/10/01 04:16:54;;;;;;;10.53;10.23;;;6.00;99.90;;;;;;5154868;27;20228;-79
2022/10/01 04:19:22;;;;;;;10.50;10.20;;;6.00;99.90;;;;;;5155352;27;20238;-79
2022/10/01 04:21:54;;;;;;;10.43;10.13;;;6.00;99.90;;;;;;5156421;27;20243;-79
2022/10/01 04:24:22;;;;;;;10.50;10.20;;;6.10;99.90;;;;;;5156748;27;20291;-78
2022/10/01 04:26:54;;;;;;;10.63;10.33;;;6.10;99.90;;;;;;5155844;27;20274;-79
2022/10/01 04:29:22;;;;;;;10.23;9.93;;;6.10;99.90;;;;;;5156228;27;20234;-79
2022/10/01 04:31:52;;;;;;;10.40;10.10;;;6.10;99.90;;;;;;5156393;27;20299;-79
2022/10/01 04:34:50;;;;;;;10.43;10.13;;;6.20;99.90;;;;;;5155618;27;20308;-78
2022/10/01 04:37:08;;;;;;;10.30;10.00;;;6.20;99.90;;;;;;5155109;27;20213;-78
2022/10/01 04:39:37;;;;;;;10.40;10.10;;;6.20;99.90;;;;;;5152972;27;20387;-79
2022/10/01 04:42:07;;;;;;;10.43;10.13;;;6.30;99.90;;;;;;5143646;27;20231;-79
2022/10/01 04:44:36;;;;;;;10.43;10.13;;;6.30;99.90;;;;;;5143425;27;20758;-79
2022/10/01 04:47:04;;;;;;;10.60;10.30;;;6.30;99.90;;;;;;5142754;27;20228;-79
2022/10/01 04:49:34;;;;;;;10.50;10.20;;;6.30;99.90;;;;;;5142626;27;20228;-79
2022/10/01 04:52:04;;;;;;;10.50;10.20;;;6.40;99.90;;;;;;5142641;27;20236;-78
2022/10/01 04:54:33;;;;;;;10.50;10.20;;;6.40;99.90;;;;;;5142360;27;20238;-80
2022/10/01 04:57:02;;;;;;;10.50;10.20;;;6.40;99.90;;;;;;5142847;27;20274;-80
2022/10/01 04:59:33;;;;;;;10.43;10.13;;;6.40;99.90;;;;;;5143361;27;20240;-80
2022/10/01 05:02:02;;;;;;;10.87;10.47;;;6.40;99.90;;;;;;5148396;27;20236;-78
2022/10/01 05:04:30;;;;;;;10.83;10.43;;;6.50;99.90;;;;;;5134335;27;20311;-79
2022/10/01 05:06:59;;;;;;;10.93;10.53;;;6.50;99.90;;;;;;5142735;27;20234;-79
2022/10/01 05:09:32;;;;;;;11.10;10.70;;;6.60;99.90;;;;;;5142169;27;20240;-79
2022/10/01 05:12:00;;;;;;;11.03;10.63;;;6.60;99.90;;;;;;5141941;27;20254;-79
2022/10/01 05:14:30;;;;;;;11.20;10.80;;;6.70;99.90;;;;;;5143313;27;20232;-79
2022/10/01 05:17:00;;;;;;;11.13;10.73;;;6.70;99.90;;;;;;5163229;27;20251;-79
2022/10/01 05:19:30;;;;;;;11.07;10.67;;;6.70;99.90;;;;;;5163408;27;20223;-80
2022/10/01 05:21:59;;;;;;;10.90;10.50;;;6.70;99.90;;;;;;5162540;27;20270;-79
2022/10/01 05:24:29;;;;;;;10.90;10.50;;;6.70;99.90;;;;;;5162972;27;20802;-79
2022/10/01 05:26:57;;;;;;;10.70;10.40;;;6.80;99.90;;;;;;5163015;27;20326;-79
2022/10/01 05:29:29;;;;;;;10.60;10.30;;;6.80;99.90;;;;;;5162952;27;20253;-79
2022/10/01 05:31:59;;;;;;;10.60;10.30;;;6.80;99.90;;;;;;5162846;27;20249;-79
2022/10/01 05:34:27;;;;;;;10.73;10.43;;;6.80;99.90;;;;;;5162109;27;20236;-79
2022/10/01 05:36:56;;;;;;;10.57;10.27;;;6.90;99.90;;;;;;5162944;27;20232;-79
2022/10/01 05:39:25;;;;;;;10.60;10.30;;;6.90;99.90;;;;;;5162596;27;20287;-79
2022/10/01 05:41:55;;;;;;;10.67;10.37;;;6.80;99.90;;;;;;5162723;27;20248;-79
2022/10/01 05:44:24;;;;;;;10.60;10.30;;;6.90;99.90;;;;;;5162114;27;20232;-79
2022/10/01 05:46:53;;;;;;;10.30;10.00;;;6.90;99.90;;;;;;5163148;27;20219;-78
2022/10/01 05:49:25;;;;;;;10.47;10.17;;;6.90;99.90;;;;;;5163124;27;20261;-79
2022/10/01 05:51:53;;;;;;;10.23;9.93;;;6.90;99.90;;;;;;5162927;27;20310;-78
2022/10/01 05:54:23;;;;;;;10.40;10.10;;;7.00;99.90;;;;;;5162565;27;20234;-79
2022/10/01 05:56:52;;;;;;;10.40;10.10;;;7.00;99.90;;;;;;5163393;27;20318;-79
2022/10/01 05:59:20;;;;;;;10.80;10.50;;;7.00;99.90;;;;;;5170015;27;20248;-78
2022/10/01 06:01:48;;;;;;;10.43;10.13;;;7.00;99.90;;;;;;5178490;27;20239;-79
2022/10/01 06:04:16;;;;;;;10.27;9.97;;;7.10;99.90;;;;;;5180075;27;20219;-79
2022/10/01 06:06:45;;;;;;;10.60;10.30;;;7.10;99.90;;;;;;5179195;27;20230;-78
2022/10/01 06:09:14;;;;;;;10.30;10.00;;;7.10;99.90;;;;;;5179966;27;20254;-79
2022/10/01 06:11:41;;;;;;;10.27;9.97;;;7.20;99.90;;;;;;5176685;27;20236;-79
2022/10/01 06:14:10;;;;;;;10.60;10.30;;;7.20;99.90;;;;;;5158641;27;20228;-79
2022/10/01 06:16:38;;;;;;;10.50;10.20;;;7.30;99.90;;;;;;5170547;27;20223;-79
2022/10/01 06:19:07;;;;;;;10.50;10.20;;;7.30;99.90;;;;;;5190603;27;20282;-79
2022/10/01 06:21:36;;;;;;;10.40;10.10;;;7.30;99.90;;;;;;5191567;27;20302;-78
2022/10/01 06:24:06;;;;;;;10.88;10.57;;;7.30;99.90;;;;;;5199365;27;20402;-79
2022/10/01 06:26:36;;;;;;;10.77;10.47;;;7.40;99.90;;;;;;5194593;27;20286;-80
2022/10/01 06:29:05;;;;;;;10.43;10.13;;;7.50;99.90;;;;;;5172541;27;20224;-79
2022/10/01 06:31:35;;;;;;;10.67;10.37;;;7.50;99.90;;;;;;5168373;27;20766;-79
2022/10/01 06:34:04;;;;;;;10.30;10.00;;;7.60;99.90;;;;;;5169603;27;20288;-81
2022/10/01 06:36:33;;;;;;;10.47;10.17;;;7.60;99.90;;;;;;5173629;27;20238;-81
2022/10/01 06:39:03;;;;;;;10.53;10.23;;;7.60;99.90;;;;;;5192798;27;20230;-81
2022/10/01 06:41:42;;;;;;;10.60;10.30;;;7.70;99.90;;;;;;5177373;27;20231;-82
2022/10/01 06:44:11;;;;;;;10.30;10.00;;;7.70;99.90;;;;;;5170177;27;20238;-83
2022/10/01 06:46:40;;;;;;;10.40;10.10;;;7.70;99.90;;;;;;5163669;27;20227;-82
2022/10/01 06:49:10;;;;;;;10.43;10.13;;;7.70;99.90;;;;;;5166914;27;20310;-82
2022/10/01 06:54:27;;;;;;;10.20;9.90;;;7.80;99.90;;;;;;5163553;27;20223;-81
2022/10/01 06:57:05;;;;;;;10.40;10.10;;;7.80;99.90;;;;;;5171045;27;20219;-82
2022/10/01 06:59:35;;;;;;;10.50;10.20;;;7.90;99.90;;;;;;5148798;27;20270;-81
2022/10/01 07:02:03;;;;;;;10.20;9.90;;;7.90;99.90;;;;;;5154182;27;20231;-82
2022/10/01 07:04:33;;;;;;;10.20;9.90;;;7.90;99.90;;;;;;5169385;27;20335;-82
2022/10/01 07:07:02;;;;;;;10.30;10.00;;;8.00;99.90;;;;;;5167384;27;20228;-81
2022/10/01 07:09:32;;;;;;;10.40;10.10;;;8.00;99.90;;;;;;5169119;27;20234;-81
2022/10/01 07:12:10;;;;;;;10.30;10.00;;;8.10;99.90;;;;;;5148910;27;20239;-80
2022/10/01 07:14:40;;;;;;;10.23;9.93;;;8.20;99.90;;;;;;5147004;27;20242;-80
2022/10/01 07:17:12;;;;;;;10.30;10.00;;;8.20;99.90;;;;;;5165050;27;20227;-81
2022/10/01 07:19:40;;;;;;;10.30;10.00;;;8.20;99.90;;;;;;5164045;27;20255;-81
2022/10/01 07:22:09;;;;;;;10.30;10.00;;;8.20;99.90;;;;;;5163581;27;20288;-81
2022/10/01 07:24:39;;;;;;;10.50;10.20;;;8.30;99.90;;;;;;5161957;27;20231;-82
2022/10/01 07:27:17;;;;;;;10.60;10.30;;;8.30;99.90;;;;;;5162317;27;20323;-81
2022/10/01 07:29:46;;;;;;;10.30;10.00;;;8.40;99.90;;;;;;5164565;27;20274;-81
2022/10/01 07:32:16;;;;;;;10.50;10.20;;;8.40;99.90;;;;;;5162842;27;20336;-81
2022/10/01 07:34:45;;;;;;;10.60;10.30;;;8.40;99.90;;;;;;5147040;27;20240;-81
2022/10/01 07:37:15;;;;;;;10.37;10.07;;;8.40;99.90;;;;;;5165822;27;20272;-81
2022/10/01 07:39:43;;;;;;;10.37;10.07;;;8.40;99.90;;;;;;5188323;27;20223;-81
2022/10/01 07:42:23;;;;;;;10.00;9.70;;;8.50;99.90;;;;;;5171667;27;20282;-81
2022/10/01 07:44:52;;;;;;;10.30;10.00;;;8.50;99.90;;;;;;5156525;27;20224;-81
2022/10/01 07:47:21;;;;;;;9.87;9.57;;;8.50;99.90;;;;;;5185034;27;20229;-80
2022/10/01 07:49:50;;;;;;;9.83;9.53;;;8.60;99.90;;;;;;5187222;27;20241;-82
2022/10/01 07:52:20;;;;;;;9.80;9.50;;;8.60;99.90;;;;;;5186161;27;20305;-80
2022/10/01 07:54:50;;;;;;;9.90;9.60;;;8.60;99.90;;;;;;5178632;27;20335;-80
2022/10/01 07:57:22;;;;;;;9.90;9.60;;;8.70;99.90;;;;;;5149741;27;20235;-82
2022/10/01 07:59:49;;;;;;;9.80;9.50;;;8.70;99.90;;;;;;5151136;27;20231;-82
2022/10/01 08:02:18;;;;;;;10.00;9.70;;;8.70;99.90;;;;;;5163846;27;20286;-82
2022/10/01 08:07:36;;;;;;;10.10;9.80;;;8.70;99.90;;;;;;5159289;27;20544;-82
2022/10/01 08:10:04;;;;;;;9.90;9.60;;;8.80;99.90;;;;;;5154401;27;20289;-81
2022/10/01 08:12:42;;;;;;;9.80;9.50;;;8.80;99.90;;;;;;5145593;27;20238;-82
2022/10/01 08:15:11;;;;;;;9.80;9.50;;;8.90;99.90;;;;;;5153822;27;20238;-82
2022/10/01 08:17:41;;;;;;;9.90;9.60;;;8.90;99.90;;;;;;5162869;27;20219;-81
2022/10/01 08:20:12;;;;;;;10.17;9.87;;;8.90;99.90;;;;;;5163168;27;20231;-80
2022/10/01 08:22:40;;;;;;;10.00;9.70;;;9.00;99.90;;;;;;5172293;27;20255;-78
2022/10/01 08:25:10;;;;;;;10.13;9.83;;;8.90;99.90;;;;;;5162303;27;20227;-80
2022/10/01 08:27:41;;;;;;;9.97;9.67;;;9.00;99.90;;;;;;5147219;27;20228;-82
2022/10/01 08:30:10;;;;;;;10.00;9.70;;;8.90;99.90;;;;;;5164249;27;20326;-81
2022/10/01 08:32:38;;;;;;;10.00;9.70;;;9.00;99.90;;;;;;5181364;27;20230;-81
2022/10/01 08:35:07;;;;;;;10.23;9.93;;;9.00;99.90;;;;;;5183779;27;20255;-80
2022/10/01 08:37:37;;;;;;;10.10;9.80;;;8.90;99.90;;;;;;5174623;27;20280;-81
2022/10/01 08:40:06;;;;;;;9.93;9.63;;;8.90;99.90;;;;;;5165736;27;20228;-80
2022/10/01 08:42:53;;;;;;;9.93;9.63;;;9.00;99.90;;;;;;5165607;27;20285;-82
2022/10/01 08:45:31;;;;;;;9.90;9.60;;;8.90;99.90;;;;;;5164648;27;20241;-82
2022/10/01 08:48:09;;;;;;;9.70;9.40;;;9.00;99.90;;;;;;5164772;27;20225;-80
2022/10/01 08:50:50;;;;;;;9.90;9.60;;;8.90;99.90;;;;;;5166423;27;20235;-81
2022/10/01 08:53:35;;;;;;;9.90;9.60;;;9.00;99.90;;;;;;5165987;27;20235;-81
2022/10/01 08:56:04;;;;;;;9.97;9.67;;;9.00;99.90;;;;;;5165164;27;20263;-83
2022/10/01 08:58:45;;;;;;;9.97;9.67;;;9.00;99.90;;;;;;5165995;27;20259;-82
2022/10/01 09:01:13;;;;;;;10.03;9.73;;;9.00;99.90;;;;;;5160134;27;20331;-82
2022/10/01 09:03:41;;;;;;;9.80;9.50;;;9.00;99.90;;;;;;5159181;27;20285;-82
2022/10/01 09:06:19;;;;;;;9.77;9.47;;;9.00;99.90;;;;;;5166335;27;20223;-82
2022/10/01 09:09:07;;;;;;;9.63;9.33;;;9.10;99.90;;;;;;5166564;27;20224;-81
2022/10/01 09:11:54;;;;;;;9.70;9.40;;;9.10;99.90;;;;;;5156358;27;20237;-81
2022/10/01 09:14:49;;;;;;;9.80;9.50;;;9.10;99.90;;;;;;5151435;27;20427;-85
2022/10/01 09:17:41;;;;;;;9.73;9.43;;;9.10;99.90;;;;;;5144038;27;20227;-82
2022/10/01 09:23:21;;;;;;;10.00;9.70;;;9.10;99.90;;;;;;5143077;27;20247;-82
2022/10/01 09:25:50;;;;;;;10.03;9.73;;;9.10;99.90;;;;;;5149233;27;20238;-83
2022/10/01 09:28:22;;;;;;;9.90;9.60;;;9.10;99.90;;;;;;5148338;27;20232;-84
2022/10/01 09:30:58;;;;;;;9.93;9.63;;;9.10;99.90;;;;;;5145860;27;20247;-80
2022/10/01 09:33:36;;;;;;;10.00;9.70;;;9.10;99.90;;;;;;5145019;27;20287;-82
2022/10/01 09:36:15;;;;;;;9.90;9.60;;;9.10;99.90;;;;;;5156000;27;20235;-83
2022/10/01 09:38:47;;;;;;;9.90;9.60;;;9.20;99.90;;;;;;5145013;27;20231;-82
2022/10/01 09:41:14;;;;;;;9.57;9.27;;;9.20;99.90;;;;;;5144178;27;20255;-83
2022/10/01 09:43:44;;;;;;;9.50;9.20;;;9.20;99.90;;;;;;5144836;27;20365;-83
2022/10/01 09:46:21;;;;;;;9.50;9.20;;;9.20;99.90;;;;;;5143820;27;20253;-83
2022/10/01 09:48:59;;;;;;;9.77;9.47;;;9.30;99.90;;;;;;5144315;27;20228;-83
2022/10/01 09:51:37;;;;;;;9.80;9.50;;;9.30;99.90;;;;;;5137294;27;20224;-82
2022/10/01 09:54:16;;;;;;;10.07;9.77;;;9.30;99.90;;;;;;5144242;27;20244;-84
2022/10/01 09:56:49;;;;;;;9.70;9.40;;;9.30;99.90;;;;;;5144233;27;20228;-84
2022/10/01 09:59:23;;;;;;;9.90;9.60;;;9.30;99.90;;;;;;5145264;27;20261;-83
2022/10/01 10:02:04;;;;;;;9.90;9.60;;;9.30;99.90;;;;;;5144311;27;20239;-83
2022/10/01 10:04:32;;;;;;;9.97;9.67;;;9.40;99.90;;;;;;5144003;27;20248;-84
2022/10/01 10:07:03;;;;;;;9.87;9.57;;;9.40;99.90;;;;;;5146544;27;20234;-83
2022/10/01 10:09:33;;;;;;;9.90;9.60;;;9.40;99.90;;;;;;5147924;27;20232;-83
2022/10/01 10:12:02;;;;;;;9.90;9.60;;;9.40;99.90;;;;;;5145843;27;20231;-83
2022/10/01 10:14:39;;;;;;;10.10;9.80;;;9.40;99.90;;;;;;5144181;27;20677;-84
2022/10/01 10:17:16;;;;;;;9.97;9.67;;;9.40;99.90;;;;;;5144717;27;20224;-84
2022/10/01 10:19:50;;;;;;;10.00;9.70;;;9.50;99.90;;;;;;5144397;27;20236;-84
2022/10/01 10:22:24;;;;;;;9.63;9.33;;;9.50;99.90;;;;;;5143699;27;20227;-84
2022/10/01 10:24:53;;;;;;;9.87;9.57;;;9.50;99.90;;;;;;5142961;27;20228;-84
2022/10/01 10:27:26;;;;;;;10.00;9.70;;;9.50;99.90;;;;;;5142557;27;20236;-83
2022/10/01 10:30:10;;;;;;;10.00;9.70;;;9.50;99.90;;;;;;5142826;27;20384;-84
2022/10/01 10:32:51;;;;;;;9.97;9.67;;;9.60;99.90;;;;;;5142026;27;20307;-84
2022/10/01 10:35:27;;;;;;;9.70;9.40;;;9.70;99.90;;;;;;5141757;27;20234;-84
2022/10/01 10:37:57;;;;;;;9.77;9.47;;;9.70;99.90;;;;;;5141924;27;20238;-84
2022/10/01 10:40:27;;;;;;;9.60;9.30;;;9.80;99.90;;;;;;5142240;27;20236;-83
2022/10/01 10:42:58;;;;;;;9.53;9.23;;;9.80;99.90;;;;;;5142472;27;20238;-83
2022/10/01 10:45:33;;;;;;;9.70;9.40;;;9.90;99.90;;;;;;5141906;27;20224;-84
2022/10/01 10:48:15;;;;;;;9.37;9.07;;;10.00;99.90;;;;;;5142366;27;20615;-84
2022/10/01 10:50:49;;;;;;;9.57;9.27;;;10.10;99.90;;;;;;5146263;27;20262;-85
2022/10/01 10:53:32;;;;;;;9.43;9.13;;;10.10;99.90;;;;;;5143852;27;20220;-84
2022/10/01 10:56:07;;;;;;;9.40;9.10;;;10.10;99.90;;;;;;5142901;27;20242;-83
2022/10/01 10:58:41;;;;;;;9.40;9.10;;;10.20;99.90;;;;;;5143453;27;20295;-83
2022/10/01 11:01:15;;;;;;;9.70;9.40;;;10.20;99.90;;;;;;5143481;27;20331;-83
2022/10/01 11:03:54;;;;;;;9.80;9.50;;;10.20;99.90;;;;;;5143184;27;20277;-84
2022/10/01 11:06:21;;;;;;;9.47;9.17;;;10.20;99.90;;;;;;5142556;27;20232;-84
2022/10/01 11:09:01;;;;;;;9.50;9.20;;;10.30;99.90;;;;;;5143288;27;20235;-83
2022/10/01 11:11:55;;;;;;;9.60;9.30;;;10.30;99.90;;;;;;5145304;27;20348;-84
2022/10/01 11:14:45;;;;;;;9.50;9.20;;;10.30;99.90;;;;;;5151485;27;20235;-83
2022/10/01 11:17:39;;;;;;;9.90;9.60;;;10.30;99.90;;;;;;5157138;27;20277;-85
2022/10/01 11:23:52;;;;;;;9.80;9.50;;;10.30;99.90;;;;;;5143599;27;20269;-83
2022/10/01 11:26:35;;;;;;;9.50;9.20;;;10.30;99.90;;;;;;5143923;27;20250;-84
2022/10/01 11:29:25;;;;;;;9.80;9.50;;;10.30;99.90;;;;;;5144018;27;20223;-84
2022/10/01 11:35:18;;;;;;;9.53;9.23;;;10.30;99.90;;;;;;5146138;27;20216;-85
2022/10/01 11:38:27;;;;;;;9.80;9.50;;;10.40;99.90;;;;;;5145960;27;20240;-83
2022/10/01 11:41:06;;;;;;;9.63;9.33;;;10.50;99.90;;;;;;5145988;27;20253;-85
2022/10/01 11:43:46;;;;;;;9.70;9.40;;;10.50;99.90;;;;;;5145180;27;20239;-84
2022/10/01 11:46:42;;;;;;;9.40;9.10;;;10.60;99.90;;;;;;5144849;27;20250;-83
2022/10/01 11:52:42;;;;;;;9.50;9.20;;;10.80;99.90;;;;;;5142418;27;20227;-83
2022/10/01 11:58:51;;;;;;;9.80;9.50;;;10.90;99.90;;;;;;5145785;27;20664;-84
2022/10/01 12:01:54;;;;;;;9.33;9.03;;;11.00;99.90;;;;;;5144149;27;20235;-84
2022/10/01 12:04:34;;;;;;;9.43;9.13;;;11.10;99.90;;;;;;5144599;27;20255;-84
2022/10/01 12:07:11;;;;;;;9.40;9.10;;;11.20;99.90;;;;;;5144236;27;20258;-84
2022/10/01 12:10:20;;;;;;;9.30;9.00;;;11.20;99.90;;;;;;5147392;27;20287;-82
2022/10/01 12:12:55;;;;;;;9.60;9.30;;;11.20;99.90;;;;;;5147915;27;20228;-83
2022/10/01 12:15:40;;;;;;;9.70;9.40;;;11.40;99.90;;;;;;5144587;27;20257;-83
2022/10/01 12:18:21;;;;;;;9.90;9.60;;;11.50;99.90;;;;;;5145594;27;20707;-84
2022/10/01 12:20:59;;;;;;;9.63;9.33;;;11.50;99.90;;;;;;5144849;27;20323;-83
2022/10/01 12:23:44;;;;;;;9.70;9.40;;;11.50;99.90;;;;;;5144771;27;20224;-85
2022/10/01 12:26:33;;;;;;;9.43;9.13;;;11.50;99.90;;;;;;5143508;27;20240;-84
2022/10/01 12:32:06;;;;;;;9.47;9.17;;;11.70;99.90;;;;;;5151232;27;20220;-83
2022/10/01 12:34:44;;;;;;;9.30;9.00;;;11.90;99.90;;;;;;5148328;27;20295;-84
2022/10/01 12:37:24;;;;;;;9.23;8.93;;;12.30;99.90;;;;;;5143203;27;20307;-83
2022/10/01 12:40:18;;;;;;;9.43;9.13;;;12.50;99.90;;;;;;5144050;27;20263;-84
2022/10/01 12:43:16;;;;;;;9.37;9.07;;;12.70;99.90;;;;;;5144161;27;20307;-83
2022/10/01 12:46:01;;;;;;;9.47;9.17;;;12.80;99.90;;;;;;5144078;27;20220;-84
2022/10/01 12:48:38;;;;;;;9.13;8.83;;;12.80;99.90;;;;;;5148597;27;20436;-83
2022/10/01 12:51:35;;;;;;;9.00;8.70;;;12.80;99.90;;;;;;5148959;27;20282;-84
2022/10/01 12:54:30;;;;;;;9.10;8.80;;;12.80;99.90;;;;;;5146380;27;20322;-83
2022/10/01 12:57:18;;;;;;;9.10;8.80;;;12.70;99.90;;;;;;5145032;27;20224;-83
2022/10/01 13:00:04;;;;;;;9.20;8.90;;;12.70;99.90;;;;;;5145117;27;20236;-84
2022/10/01 13:06:22;;;;;;;9.20;8.90;;;12.70;99.90;;;;;;5143894;27;20224;-83
2022/10/01 13:09:09;;;;;;;9.20;8.90;;;12.70;99.90;;;;;;5144086;27;20232;-84
2022/10/01 13:12:05;;;;;;;9.43;9.13;;;12.70;99.90;;;;;;5144104;27;20239;-84
2022/10/01 13:14:34;;;;;;;9.10;8.80;;;12.70;99.90;;;;;;5143291;27;20228;-84
2022/10/01 13:17:09;;;;;;;8.80;8.60;;;12.80;99.90;;;;;;5143709;27;20244;-83
2022/10/01 13:19:47;;;;;;;9.20;8.90;;;12.80;99.90;;;;;;5144243;27;20224;-83
2022/10/01 13:22:25;;;;;;;8.97;8.67;;;12.80;99.90;;;;;;5143615;27;20232;-83
2022/10/01 13:25:01;;;;;;;8.80;8.60;;;12.80;99.90;;;;;;5143656;27;20242;-83
2022/10/01 13:27:38;;;;;;;9.20;8.90;;;12.80;99.90;;;;;;5147039;27;20227;-83
2022/10/01 13:30:18;;;;;;;9.03;8.73;;;12.80;99.90;;;;;;5161379;27;20228;-83
2022/10/01 13:32:57;;;;;;;9.20;8.90;;;12.90;99.90;;;;;;5161843;27;20311;-83
2022/10/01 13:35:33;;;;;;;9.43;9.13;;;12.80;99.90;;;;;;5161733;27;20228;-84
2022/10/01 13:38:02;;;;;;;9.30;9.00;;;12.80;99.90;;;;;;5161891;27;20224;-83
2022/10/01 13:40:32;;;;;;;9.43;9.13;;;12.70;99.90;;;;;;5161425;27;20263;-83
2022/10/01 13:43:03;;;;;;;9.40;9.10;;;12.60;99.90;;;;;;5161690;27;20243;-83
2022/10/01 13:45:40;;;;;;;9.13;8.83;;;12.50;99.90;;;;;;5161328;27;20247;-84
2022/10/01 13:48:18;;;;;;;8.97;8.67;;;12.60;99.90;;;;;;5162002;27;20220;-83
2022/10/01 13:51:09;;;;;;;9.20;8.90;;;12.50;99.90;;;;;;5161233;27;20228;-83